sensor_id;sensor_type;location;lat;lon;timestamp;pressure;altitude;pressure_sealevel;temperature;humidity
29569;BME280;16501;51.462;14.346;2022-10-16T00:02:01;99894.16;;;14.04;100.00
29569;BME280;16501;51.462;14.346;2022-10-16T00:04:26;99922.38;;;14.21;100.00
29569;BME280;16501;51.462;14.346;2022-10-16T00:06:52;99927.00;;;14.24;100.00
29569;BME280;16501;51.462;14.346;2022-10-16T00:09:17;99906.69;;;14.08;100.00
29569;BME280;16501;51.462;14.346;2022-10-16T00:11:42;99933.91;;;14.23;100.00
29569;BME280;16501;51.462;14.346;2022-10-16T00:14:11;99896.69;;;14.02;100.00
29569;BME280;16501;51.462;14.346;2022-10-16T00:16:37;99945.25;;;14.28;100.00
29569;BME280;16501;51.462;14.346;2022-10-16T00:19:02;99920.31;;;14.15;100.00
29569;BME280;16501;51.462;14.346;2022-10-16T00:21:29;99940.38;;;14.29;100.00
29569;BME280;16501;51.462;14.346;2022-10-16T00:23:58;99927.50;;;14.17;100.00
29569;BME280;16501;51.462;14.346;2022-10-16T00:26:25;99929.03;;;14.18;100.00
29569;BME280;16501;51.462;14.346;2022-10-16T00:28:51;99921.34;;;14.12;100.00
29569;BME280;16501;51.462;14.346;2022-10-16T00:31:18;99920.56;;;14.18;100.00
29569;BME280;16501;51.462;14.346;2022-10-16T00:33:44;99921.38;;;14.24;100.00
29569;BME280;16501;51.462;14.346;2022-10-16T00:36:13;99935.50;;;14.29;100.00
29569;BME280;16501;51.462;14.346;2022-10-16T00:38:39;99931.38;;;14.25;100.00
29569;BME280;16501;51.462;14.346;2022-10-16T00:41:06;99943.72;;;14.33;100.00
29569;BME280;16501;51.462;14.346;2022-10-16T00:43:47;99953.72;;;14.34;100.00
29569;BME280;16501;51.462;14.346;2022-10-16T00:48:42;99944.19;;;14.26;100.00
29569;BME280;16501;51.462;14.346;2022-10-16T00:51:11;99946.75;;;14.24;100.00
29569;BME280;16501;51.462;14.346;2022-10-16T00:53:37;99942.88;;;14.15;100.00
29569;BME280;16501;51.462;14.346;2022-10-16T00:56:03;99956.78;;;14.25;100.00
29569;BME280;16501;51.462;14.346;2022-10-16T00:58:29;99950.59;;;14.21;100.00
29569;BME280;16501;51.462;14.346;2022-10-16T01:00:54;99954.41;;;14.18;100.00
29569;BME280;16501;51.462;14.346;2022-10-16T01:03:31;99955.19;;;14.18;100.00
29569;BME280;16501;51.462;14.346;2022-10-16T01:06:24;99962.94;;;14.29;100.00
29569;BME280;16501;51.462;14.346;2022-10-16T01:09:05;99954.97;;;14.27;100.00
29569;BME280;16501;51.462;14.346;2022-10-16T01:11:44;99938.28;;;14.18;100.00
29569;BME280;16501;51.462;14.346;2022-10-16T01:14:26;99941.34;;;14.14;100.00
29569;BME280;16501;51.462;14.346;2022-10-16T01:17:19;99926.19;;;14.12;100.00
29569;BME280;16501;51.462;14.346;2022-10-16T01:20:03;99941.63;;;14.22;100.00
29569;BME280;16501;51.462;14.346;2022-10-16T01:25:52;99939.84;;;14.25;100.00
29569;BME280;16501;51.462;14.346;2022-10-16T01:28:23;99910.28;;;14.03;100.00
29569;BME280;16501;51.462;14.346;2022-10-16T01:30:52;99951.38;;;14.21;100.00
29569;BME280;16501;51.462;14.346;2022-10-16T01:33:24;99948.25;;;14.13;100.00
29569;BME280;16501;51.462;14.346;2022-10-16T01:35:59;99953.66;;;14.23;100.00
29569;BME280;16501;51.462;14.346;2022-10-16T01:38:49;99943.63;;;14.10;100.00
29569;BME280;16501;51.462;14.346;2022-10-16T01:41:21;99958.03;;;14.18;100.00
29569;BME280;16501;51.462;14.346;2022-10-16T01:44:07;99960.09;;;14.23;100.00
29569;BME280;16501;51.462;14.346;2022-10-16T01:46:36;99967.25;;;14.24;100.00
29569;BME280;16501;51.462;14.346;2022-10-16T01:49:05;99966.22;;;14.16;100.00
29569;BME280;16501;51.462;14.346;2022-10-16T01:51:32;99951.81;;;14.08;100.00
29569;BME280;16501;51.462;14.346;2022-10-16T01:54:00;99977.25;;;14.20;100.00
29569;BME280;16501;51.462;14.346;2022-10-16T01:56:28;99955.63;;;14.05;100.00
29569;BME280;16501;51.462;14.346;2022-10-16T01:59:05;99990.59;;;14.25;100.00
29569;BME280;16501;51.462;14.346;2022-10-16T02:02:07;99959.25;;;14.06;100.00
29569;BME280;16501;51.462;14.346;2022-10-16T02:04:49;99983.13;;;14.16;100.00
29569;BME280;16501;51.462;14.346;2022-10-16T02:07:18;99966.47;;;14.12;100.00
29569;BME280;16501;51.462;14.346;2022-10-16T02:09:44;99992.13;;;14.26;100.00
29569;BME280;16501;51.462;14.346;2022-10-16T02:12:15;99975.19;;;14.14;100.00
29569;BME280;16501;51.462;14.346;2022-10-16T02:14:44;99975.44;;;14.17;100.00
29569;BME280;16501;51.462;14.346;2022-10-16T02:17:15;99979.09;;;14.28;100.00
29569;BME280;16501;51.462;14.346;2022-10-16T02:19:41;99969.28;;;14.18;100.00
29569;BME280;16501;51.462;14.346;2022-10-16T02:22:15;99980.59;;;14.24;100.00
29569;BME280;16501;51.462;14.346;2022-10-16T02:24:49;99988.81;;;14.27;100.00
29569;BME280;16501;51.462;14.346;2022-10-16T02:27:24;99978.53;;;14.19;100.00
29569;BME280;16501;51.462;14.346;2022-10-16T02:30:01;99986.72;;;14.22;100.00
29569;BME280;16501;51.462;14.346;2022-10-16T02:32:47;99979.03;;;14.17;100.00
29569;BME280;16501;51.462;14.346;2022-10-16T02:35:16;99982.34;;;14.15;100.00
29569;BME280;16501;51.462;14.346;2022-10-16T02:37:44;99959.75;;;14.04;100.00
29569;BME280;16501;51.462;14.346;2022-10-16T02:40:12;99983.41;;;14.24;100.00
29569;BME280;16501;51.462;14.346;2022-10-16T02:42:39;99964.41;;;14.13;100.00
29569;BME280;16501;51.462;14.346;2022-10-16T02:45:06;99980.59;;;14.24;100.00
29569;BME280;16501;51.462;14.346;2022-10-16T02:47:31;99993.72;;;14.32;100.00
29569;BME280;16501;51.462;14.346;2022-10-16T02:49:57;99989.38;;;14.37;100.00
29569;BME280;16501;51.462;14.346;2022-10-16T02:52:23;99988.06;;;14.32;100.00
29569;BME280;16501;51.462;14.346;2022-10-16T02:54:50;99968.81;;;14.25;100.00
29569;BME280;16501;51.462;14.346;2022-10-16T02:57:15;99978.78;;;14.26;100.00
29569;BME280;16501;51.462;14.346;2022-10-16T02:59:40;99966.22;;;14.22;100.00
29569;BME280;16501;51.462;14.346;2022-10-16T03:02:06;99970.59;;;14.23;100.00
29569;BME280;16501;51.462;14.346;2022-10-16T03:04:32;99960.59;;;14.22;100.00
29569;BME280;16501;51.462;14.346;2022-10-16T03:06:57;99962.94;;;14.29;100.00
29569;BME280;16501;51.462;14.346;2022-10-16T03:09:23;99978.09;;;14.37;100.00
29569;BME280;16501;51.462;14.346;2022-10-16T03:11:48;99952.88;;;14.17;100.00
29569;BME280;16501;51.462;14.346;2022-10-16T03:14:13;99984.75;;;14.34;100.00
29569;BME280;16501;51.462;14.346;2022-10-16T03:16:39;99974.97;;;14.29;100.00
29569;BME280;16501;51.462;14.346;2022-10-16T03:19:04;99984.25;;;14.36;100.00
29569;BME280;16501;51.462;14.346;2022-10-16T03:21:29;99968.56;;;14.23;100.00
29569;BME280;16501;51.462;14.346;2022-10-16T03:23:54;99973.41;;;14.23;100.00
29569;BME280;16501;51.462;14.346;2022-10-16T03:26:20;99991.13;;;14.29;100.00
29569;BME280;16501;51.462;14.346;2022-10-16T03:28:45;99976.75;;;14.21;100.00
29569;BME280;16501;51.462;14.346;2022-10-16T03:31:11;99989.06;;;14.24;100.00
29569;BME280;16501;51.462;14.346;2022-10-16T03:33:36;99997.28;;;14.33;100.00
29569;BME280;16501;51.462;14.346;2022-10-16T03:36:01;99991.94;;;14.35;100.00
29569;BME280;16501;51.462;14.346;2022-10-16T03:38:27;99997.03;;;14.31;100.00
29569;BME280;16501;51.462;14.346;2022-10-16T03:40:52;99983.94;;;14.28;100.00
29569;BME280;16501;51.462;14.346;2022-10-16T03:43:19;99942.56;;;14.02;100.00
29569;BME280;16501;51.462;14.346;2022-10-16T03:45:44;99991.88;;;14.29;100.00
29569;BME280;16501;51.462;14.346;2022-10-16T03:48:09;99985.50;;;14.29;100.00
29569;BME280;16501;51.462;14.346;2022-10-16T03:50:34;99979.31;;;14.25;100.00
29569;BME280;16501;51.462;14.346;2022-10-16T03:53:00;99999.38;;;14.38;100.00
29569;BME280;16501;51.462;14.346;2022-10-16T03:55:25;99995.78;;;14.38;100.00
29569;BME280;16501;51.462;14.346;2022-10-16T03:57:50;100006.56;;;14.39;100.00
29569;BME280;16501;51.462;14.346;2022-10-16T04:00:16;100025.56;;;14.44;100.00
29569;BME280;16501;51.462;14.346;2022-10-16T04:02:41;100022.19;;;14.40;100.00
29569;BME280;16501;51.462;14.346;2022-10-16T04:05:07;100035.56;;;14.45;100.00
29569;BME280;16501;51.462;14.346;2022-10-16T04:07:32;100038.38;;;14.45;100.00
29569;BME280;16501;51.462;14.346;2022-10-16T04:09:58;100033.75;;;14.42;100.00
29569;BME280;16501;51.462;14.346;2022-10-16T04:12:25;100044.56;;;14.49;100.00
29569;BME280;16501;51.462;14.346;2022-10-16T04:14:50;100054.28;;;14.48;100.00
29569;BME280;16501;51.462;14.346;2022-10-16T04:17:16;100024.72;;;14.32;100.00
29569;BME280;16501;51.462;14.346;2022-10-16T04:19:41;100019.34;;;14.34;100.00
29569;BME280;16501;51.462;14.346;2022-10-16T04:22:06;100041.16;;;14.40;100.00
29569;BME280;16501;51.462;14.346;2022-10-16T04:24:32;100030.13;;;14.36;100.00
29569;BME280;16501;51.462;14.346;2022-10-16T04:26:57;100059.41;;;14.44;100.00
29569;BME280;16501;51.462;14.346;2022-10-16T04:29:22;100054.50;;;14.39;100.00
29569;BME280;16501;51.462;14.346;2022-10-16T04:31:49;100035.25;;;14.32;100.00
29569;BME280;16501;51.462;14.346;2022-10-16T04:34:15;100041.94;;;14.40;100.00
29569;BME280;16501;51.462;14.346;2022-10-16T04:36:41;100054.56;;;14.50;100.00
29569;BME280;16501;51.462;14.346;2022-10-16T04:39:06;100039.66;;;14.39;100.00
29569;BME280;16501;51.462;14.346;2022-10-16T04:41:31;100035.53;;;14.40;100.00
29569;BME280;16501;51.462;14.346;2022-10-16T04:43:56;100050.44;;;14.46;100.00
29569;BME280;16501;51.462;14.346;2022-10-16T04:46:22;100047.31;;;14.38;100.00
29569;BME280;16501;51.462;14.346;2022-10-16T04:48:47;100064.06;;;14.53;100.00
29569;BME280;16501;51.462;14.346;2022-10-16T04:51:12;100054.78;;;14.41;100.00
29569;BME280;16501;51.462;14.346;2022-10-16T04:53:39;100043.75;;;14.43;100.00
29569;BME280;16501;51.462;14.346;2022-10-16T04:56:04;100049.41;;;14.43;100.00
29569;BME280;16501;51.462;14.346;2022-10-16T04:58:30;100045.25;;;14.33;100.00
29569;BME280;16501;51.462;14.346;2022-10-16T05:00:55;100034.78;;;14.45;100.00
29569;BME280;16501;51.462;14.346;2022-10-16T05:03:20;100045.31;;;14.44;100.00
29569;BME280;16501;51.462;14.346;2022-10-16T05:05:46;100052.75;;;14.47;100.00
29569;BME280;16501;51.462;14.346;2022-10-16T05:08:14;100060.69;;;14.49;100.00
29569;BME280;16501;51.462;14.346;2022-10-16T05:10:44;100056.34;;;14.48;100.00
29569;BME280;16501;51.462;14.346;2022-10-16T05:13:09;100068.66;;;14.50;100.00
29569;BME280;16501;51.462;14.346;2022-10-16T05:15:35;100067.84;;;14.39;100.00
29569;BME280;16501;51.462;14.346;2022-10-16T05:18:02;100066.06;;;14.47;100.00
29569;BME280;16501;51.462;14.346;2022-10-16T05:20:27;100050.41;;;14.40;100.00
29569;BME280;16501;51.462;14.346;2022-10-16T05:22:53;100044.50;;;14.38;100.00
29569;BME280;16501;51.462;14.346;2022-10-16T05:25:18;100064.03;;;14.47;100.00
29569;BME280;16501;51.462;14.346;2022-10-16T05:27:47;100066.88;;;14.53;100.00
29569;BME280;16501;51.462;14.346;2022-10-16T05:30:15;100033.44;;;14.34;100.00
29569;BME280;16501;51.462;14.346;2022-10-16T05:32:40;100058.66;;;14.44;100.00
29569;BME280;16501;51.462;14.346;2022-10-16T05:35:06;100057.84;;;14.43;100.00
29569;BME280;16501;51.462;14.346;2022-10-16T05:37:33;100059.09;;;14.37;100.00
29569;BME280;16501;51.462;14.346;2022-10-16T05:39:58;100066.06;;;14.41;100.00
29569;BME280;16501;51.462;14.346;2022-10-16T05:42:24;100087.63;;;14.44;100.00
29569;BME280;16501;51.462;14.346;2022-10-16T05:44:50;100082.47;;;14.37;100.00
29569;BME280;16501;51.462;14.346;2022-10-16T05:47:15;100065.47;;;14.31;100.00
29569;BME280;16501;51.462;14.346;2022-10-16T05:49:41;100082.97;;;14.41;100.00
29569;BME280;16501;51.462;14.346;2022-10-16T05:52:06;100066.44;;;14.23;100.00
29569;BME280;16501;51.462;14.346;2022-10-16T05:54:31;100079.38;;;14.35;100.00
29569;BME280;16501;51.462;14.346;2022-10-16T05:56:58;100087.34;;;14.42;100.00
29569;BME280;16501;51.462;14.346;2022-10-16T05:59:23;100102.00;;;14.46;100.00
29569;BME280;16501;51.462;14.346;2022-10-16T06:01:49;100105.56;;;14.47;100.00
29569;BME280;16501;51.462;14.346;2022-10-16T06:04:15;100096.31;;;14.41;100.00
29569;BME280;16501;51.462;14.346;2022-10-16T06:06:40;100103.00;;;14.43;100.00
29569;BME280;16501;51.462;14.346;2022-10-16T06:09:06;100084.72;;;14.33;100.00
29569;BME280;16501;51.462;14.346;2022-10-16T06:11:32;100104.03;;;14.46;100.00
29569;BME280;16501;51.462;14.346;2022-10-16T06:14:01;100108.16;;;14.50;100.00
29569;BME280;16501;51.462;14.346;2022-10-16T06:16:32;100116.66;;;14.56;100.00
29569;BME280;16501;51.462;14.346;2022-10-16T06:18:57;100133.28;;;14.48;100.00
29569;BME280;16501;51.462;14.346;2022-10-16T06:21:24;100147.19;;;14.58;100.00
29569;BME280;16501;51.462;14.346;2022-10-16T06:23:51;100156.50;;;14.69;100.00
29569;BME280;16501;51.462;14.346;2022-10-16T06:26:22;100133.66;;;14.62;100.00
29569;BME280;16501;51.462;14.346;2022-10-16T06:28:48;100166.56;;;14.76;100.00
29569;BME280;16501;51.462;14.346;2022-10-16T06:31:14;100178.94;;;14.84;100.00
29569;BME280;16501;51.462;14.346;2022-10-16T06:33:40;100155.78;;;14.75;100.00
29569;BME280;16501;51.462;14.346;2022-10-16T06:36:10;100136.00;;;14.69;100.00
29569;BME280;16501;51.462;14.346;2022-10-16T06:38:36;100172.03;;;14.91;100.00
29569;BME280;16501;51.462;14.346;2022-10-16T06:41:03;100164.84;;;14.96;100.00
29569;BME280;16501;51.462;14.346;2022-10-16T06:43:29;100164.06;;;14.84;100.00
29569;BME280;16501;51.462;14.346;2022-10-16T06:45:58;100172.31;;;14.93;100.00
29569;BME280;16501;51.462;14.346;2022-10-16T06:48:24;100179.22;;;14.92;100.00
29569;BME280;16501;51.462;14.346;2022-10-16T06:51:11;100164.31;;;14.86;100.00
29569;BME280;16501;51.462;14.346;2022-10-16T06:53:40;100162.75;;;14.79;100.00
29569;BME280;16501;51.462;14.346;2022-10-16T06:56:10;100179.72;;;14.90;100.00
29569;BME280;16501;51.462;14.346;2022-10-16T06:58:37;100170.91;;;15.26;100.00
29569;BME280;16501;51.462;14.346;2022-10-16T07:01:04;100173.13;;;15.82;100.00
29569;BME280;16501;51.462;14.346;2022-10-16T07:03:29;100181.63;;;16.21;100.00
29569;BME280;16501;51.462;14.346;2022-10-16T07:05:55;100187.25;;;16.50;100.00
29569;BME280;16501;51.462;14.346;2022-10-16T07:08:21;100176.44;;;16.65;100.00
29569;BME280;16501;51.462;14.346;2022-10-16T07:11:01;100158.94;;;16.67;100.00
29569;BME280;16501;51.462;14.346;2022-10-16T07:13:28;100182.09;;;16.59;100.00
29569;BME280;16501;51.462;14.346;2022-10-16T07:15:53;100182.56;;;16.92;100.00
29569;BME280;16501;51.462;14.346;2022-10-16T07:18:19;100193.06;;;17.03;100.00
29569;BME280;16501;51.462;14.346;2022-10-16T07:20:44;100206.94;;;17.12;100.00
29569;BME280;16501;51.462;14.346;2022-10-16T07:23:09;100179.50;;;16.73;100.00
29569;BME280;16501;51.462;14.346;2022-10-16T07:25:35;100197.28;;;16.62;100.00
29569;BME280;16501;51.462;14.346;2022-10-16T07:28:00;100184.69;;;16.40;100.00
29569;BME280;16501;51.462;14.346;2022-10-16T07:30:25;100202.94;;;16.45;100.00
29569;BME280;16501;51.462;14.346;2022-10-16T07:32:52;100202.94;;;16.28;100.00
29569;BME280;16501;51.462;14.346;2022-10-16T07:35:19;100218.16;;;16.25;100.00
29569;BME280;16501;51.462;14.346;2022-10-16T07:37:45;100219.69;;;16.15;100.00
29569;BME280;16501;51.462;14.346;2022-10-16T07:40:11;100216.06;;;15.97;100.00
29569;BME280;16501;51.462;14.346;2022-10-16T07:42:36;100221.44;;;15.90;100.00
29569;BME280;16501;51.462;14.346;2022-10-16T07:45:02;100237.38;;;15.98;100.00
29569;BME280;16501;51.462;14.346;2022-10-16T07:47:28;100232.50;;;15.93;100.00
29569;BME280;16501;51.462;14.346;2022-10-16T07:49:53;100204.97;;;15.77;100.00
29569;BME280;16501;51.462;14.346;2022-10-16T07:52:18;100228.66;;;15.96;100.00
29569;BME280;16501;51.462;14.346;2022-10-16T07:54:44;100215.00;;;15.78;100.00
29569;BME280;16501;51.462;14.346;2022-10-16T07:57:09;100220.41;;;15.87;100.00
29569;BME280;16501;51.462;14.346;2022-10-16T07:59:34;100217.84;;;15.83;100.00
29569;BME280;16501;51.462;14.346;2022-10-16T08:02:00;100231.22;;;15.89;100.00
29569;BME280;16501;51.462;14.346;2022-10-16T08:04:25;100224.00;;;15.82;100.00
29569;BME280;16501;51.462;14.346;2022-10-16T08:06:50;100233.00;;;15.86;100.00
29569;BME280;16501;51.462;14.346;2022-10-16T08:09:16;100252.56;;;15.95;100.00
29569;BME280;16501;51.462;14.346;2022-10-16T08:11:41;100219.31;;;15.68;100.00
29569;BME280;16501;51.462;14.346;2022-10-16T08:14:06;100231.97;;;15.78;100.00
29569;BME280;16501;51.462;14.346;2022-10-16T08:16:32;100246.38;;;15.86;100.00
29569;BME280;16501;51.462;14.346;2022-10-16T08:18:57;100247.38;;;15.88;100.00
29569;BME280;16501;51.462;14.346;2022-10-16T08:21:24;100247.94;;;15.92;100.00
29569;BME280;16501;51.462;14.346;2022-10-16T08:23:50;100259.28;;;16.15;100.00
29569;BME280;16501;51.462;14.346;2022-10-16T08:26:16;100228.13;;;16.09;100.00
29569;BME280;16501;51.462;14.346;2022-10-16T08:28:41;100246.69;;;16.33;100.00
29569;BME280;16501;51.462;14.346;2022-10-16T08:31:12;100239.22;;;16.52;100.00
29569;BME280;16501;51.462;14.346;2022-10-16T08:33:39;100227.38;;;16.65;100.00
29569;BME280;16501;51.462;14.346;2022-10-16T08:36:06;100252.81;;;17.10;100.00
29569;BME280;16501;51.462;14.346;2022-10-16T08:38:31;100260.19;;;17.36;100.00
29569;BME280;16501;51.462;14.346;2022-10-16T08:41:27;100245.50;;;17.38;100.00
29569;BME280;16501;51.462;14.346;2022-10-16T08:49:36;100254.69;;;18.08;98.61
29569;BME280;16501;51.462;14.346;2022-10-16T08:52:03;100261.69;;;18.37;96.70
29569;BME280;16501;51.462;14.346;2022-10-16T08:54:31;100259.25;;;18.22;95.64
29569;BME280;16501;51.462;14.346;2022-10-16T08:57:08;100247.56;;;17.96;95.54
29569;BME280;16501;51.462;14.346;2022-10-16T08:59:34;100261.00;;;17.89;96.27
29569;BME280;16501;51.462;14.346;2022-10-16T09:02:00;100251.31;;;17.62;95.45
29569;BME280;16501;51.462;14.346;2022-10-16T09:15:39;100256.28;;;17.45;98.17
29569;BME280;16501;51.462;14.346;2022-10-16T09:21:14;100279.66;;;17.62;95.87
29569;BME280;16501;51.462;14.346;2022-10-16T09:23:41;100286.38;;;17.65;96.16
29569;BME280;16501;51.462;14.346;2022-10-16T09:26:11;100297.34;;;17.91;96.43
29569;BME280;16501;51.462;14.346;2022-10-16T09:28:38;100298.22;;;18.22;94.43
29569;BME280;16501;51.462;14.346;2022-10-16T09:31:03;100297.25;;;18.44;93.00
29569;BME280;16501;51.462;14.346;2022-10-16T09:33:33;100291.44;;;18.61;92.48
29569;BME280;16501;51.462;14.346;2022-10-16T09:36:02;100292.13;;;18.73;91.74
29569;BME280;16501;51.462;14.346;2022-10-16T09:38:33;100300.88;;;18.75;91.96
29569;BME280;16501;51.462;14.346;2022-10-16T09:41:22;100286.31;;;18.59;90.39
29569;BME280;16501;51.462;14.346;2022-10-16T09:43:56;100313.69;;;18.57;92.20
29569;BME280;16501;51.462;14.346;2022-10-16T09:48:49;100295.84;;;18.26;92.76
29569;BME280;16501;51.462;14.346;2022-10-16T09:51:27;100310.81;;;18.26;93.29
29569;BME280;16501;51.462;14.346;2022-10-16T09:56:30;100303.28;;;18.35;92.53
29569;BME280;16501;51.462;14.346;2022-10-16T09:59:00;100296.25;;;18.41;91.45
29569;BME280;16501;51.462;14.346;2022-10-16T10:01:37;100319.31;;;18.98;90.22
29569;BME280;16501;51.462;14.346;2022-10-16T10:04:03;100303.56;;;18.97;90.21
29569;BME280;16501;51.462;14.346;2022-10-16T10:06:32;100318.78;;;19.49;87.26
29569;BME280;16501;51.462;14.346;2022-10-16T10:14:21;100332.19;;;19.30;87.34
29569;BME280;16501;51.462;14.346;2022-10-16T10:16:49;100320.31;;;19.01;88.33
29569;BME280;16501;51.462;14.346;2022-10-16T10:21:42;100323.38;;;18.73;90.23
29569;BME280;16501;51.462;14.346;2022-10-16T10:24:11;100326.28;;;18.61;90.90
29569;BME280;16501;51.462;14.346;2022-10-16T10:26:37;100307.09;;;18.43;91.41
29569;BME280;16501;51.462;14.346;2022-10-16T10:29:15;100317.19;;;18.38;91.49
29569;BME280;16501;51.462;14.346;2022-10-16T10:35:07;100319.97;;;18.44;92.42
29569;BME280;16501;51.462;14.346;2022-10-16T10:37:56;100333.16;;;18.41;92.97
29569;BME280;16501;51.462;14.346;2022-10-16T10:43:55;100323.69;;;18.27;93.23
29569;BME280;16501;51.462;14.346;2022-10-16T10:46:41;100335.53;;;18.32;93.75
29569;BME280;16501;51.462;14.346;2022-10-16T10:49:44;100341.72;;;18.36;93.23
29569;BME280;16501;51.462;14.346;2022-10-16T10:52:37;100336.59;;;18.28;93.32
29569;BME280;16501;51.462;14.346;2022-10-16T10:55:21;100336.06;;;18.30;93.08
29569;BME280;16501;51.462;14.346;2022-10-16T11:01:05;100333.44;;;18.38;93.78
29569;BME280;16501;51.462;14.346;2022-10-16T11:06:40;100321.72;;;18.53;92.61
29569;BME280;16501;51.462;14.346;2022-10-16T11:09:13;100347.72;;;18.62;92.56
29569;BME280;16501;51.462;14.346;2022-10-16T11:11:46;100349.00;;;18.61;92.87
29569;BME280;16501;51.462;14.346;2022-10-16T11:14:35;100320.84;;;18.63;93.18
29569;BME280;16501;51.462;14.346;2022-10-16T11:17:12;100343.41;;;18.86;91.79
29569;BME280;16501;51.462;14.346;2022-10-16T11:30:47;100342.50;;;19.02;90.80
29569;BME280;16501;51.462;14.346;2022-10-16T11:35:47;100344.16;;;18.92;90.62
29569;BME280;16501;51.462;14.346;2022-10-16T11:38:47;100352.09;;;18.99;91.12
29569;BME280;16501;51.462;14.346;2022-10-16T11:44:03;100356.44;;;19.06;91.06
29569;BME280;16501;51.462;14.346;2022-10-16T11:46:33;100346.25;;;19.16;90.30
29569;BME280;16501;51.462;14.346;2022-10-16T11:49:16;100321.97;;;19.15;89.23
29569;BME280;16501;51.462;14.346;2022-10-16T11:52:12;100351.03;;;19.76;89.05
29569;BME280;16501;51.462;14.346;2022-10-16T11:55:13;100362.75;;;19.92;88.20
29569;BME280;16501;51.462;14.346;2022-10-16T11:57:39;100326.75;;;19.75;87.30
29569;BME280;16501;51.462;14.346;2022-10-16T12:00:20;100330.41;;;19.70;88.14
29569;BME280;16501;51.462;14.346;2022-10-16T12:05:52;100350.56;;;19.72;87.43
29569;BME280;16501;51.462;14.346;2022-10-16T12:08:21;100345.84;;;19.56;86.71
29569;BME280;16501;51.462;14.346;2022-10-16T12:10:47;100362.91;;;19.56;87.22
29569;BME280;16501;51.462;14.346;2022-10-16T12:13:37;100349.63;;;19.39;86.67
29569;BME280;16501;51.462;14.346;2022-10-16T12:18:38;100366.00;;;19.58;87.12
29569;BME280;16501;51.462;14.346;2022-10-16T12:21:05;100362.78;;;19.67;86.33
29569;BME280;16501;51.462;14.346;2022-10-16T12:23:47;100353.66;;;19.74;85.12
29569;BME280;16501;51.462;14.346;2022-10-16T12:26:13;100358.09;;;19.70;85.85
29569;BME280;16501;51.462;14.346;2022-10-16T12:28:39;100363.50;;;19.73;86.22
29569;BME280;16501;51.462;14.346;2022-10-16T12:31:07;100356.63;;;19.63;84.95
29569;BME280;16501;51.462;14.346;2022-10-16T12:33:35;100358.22;;;19.58;84.18
29569;BME280;16501;51.462;14.346;2022-10-16T12:36:04;100346.50;;;19.43;85.12
29569;BME280;16501;51.462;14.346;2022-10-16T12:41:10;100326.88;;;19.39;85.10
29569;BME280;16501;51.462;14.346;2022-10-16T12:43:45;100327.94;;;19.36;85.53
29569;BME280;16501;51.462;14.346;2022-10-16T12:48:41;100355.31;;;19.64;84.83
29569;BME280;16501;51.462;14.346;2022-10-16T12:53:59;100364.28;;;19.74;84.96
29569;BME280;16501;51.462;14.346;2022-10-16T12:59:15;100384.47;;;19.95;84.92
29569;BME280;16501;51.462;14.346;2022-10-16T13:02:09;100373.91;;;19.90;86.04
29569;BME280;16501;51.462;14.346;2022-10-16T13:05:08;100380.78;;;20.00;85.90
29569;BME280;16501;51.462;14.346;2022-10-16T13:07:44;100390.91;;;19.95;84.84
29569;BME280;16501;51.462;14.346;2022-10-16T13:13:02;100388.81;;;19.77;85.66
29569;BME280;16501;51.462;14.346;2022-10-16T13:16:02;100395.28;;;19.77;87.06
29569;BME280;16501;51.462;14.346;2022-10-16T13:18:49;100410.28;;;19.72;86.80
29569;BME280;16501;51.462;14.346;2022-10-16T13:21:25;100405.22;;;19.65;86.44
29569;BME280;16501;51.462;14.346;2022-10-16T13:27:04;100374.84;;;19.49;86.77
29569;BME280;16501;51.462;14.346;2022-10-16T13:29:33;100424.78;;;19.74;87.06
29569;BME280;16501;51.462;14.346;2022-10-16T13:32:00;100407.03;;;19.63;86.78
29569;BME280;16501;51.462;14.346;2022-10-16T13:34:31;100413.66;;;19.71;86.91
29569;BME280;16501;51.462;14.346;2022-10-16T13:36:58;100383.81;;;19.58;87.10
29569;BME280;16501;51.462;14.346;2022-10-16T13:39:26;100404.88;;;19.74;87.25
29569;BME280;16501;51.462;14.346;2022-10-16T13:42:12;100415.41;;;19.80;86.91
29569;BME280;16501;51.462;14.346;2022-10-16T13:44:53;100419.59;;;19.78;87.16
29569;BME280;16501;51.462;14.346;2022-10-16T13:47:26;100419.59;;;19.78;87.59
29569;BME280;16501;51.462;14.346;2022-10-16T13:50:06;100424.41;;;19.84;87.25
29569;BME280;16501;51.462;14.346;2022-10-16T13:52:34;100410.78;;;19.76;87.73
29569;BME280;16501;51.462;14.346;2022-10-16T13:54:59;100389.66;;;19.66;87.69
29569;BME280;16501;51.462;14.346;2022-10-16T13:57:24;100387.59;;;19.67;88.06
29569;BME280;16501;51.462;14.346;2022-10-16T13:59:51;100432.59;;;19.93;88.90
29569;BME280;16501;51.462;14.346;2022-10-16T14:04:46;100427.44;;;19.91;87.09
29569;BME280;16501;51.462;14.346;2022-10-16T14:07:23;100418.50;;;19.82;87.30
29569;BME280;16501;51.462;14.346;2022-10-16T14:09:51;100421.69;;;19.72;87.09
29569;BME280;16501;51.462;14.346;2022-10-16T14:12:16;100422.50;;;19.67;87.32
29569;BME280;16501;51.462;14.346;2022-10-16T14:14:53;100432.28;;;19.72;87.58
29569;BME280;16501;51.462;14.346;2022-10-16T14:17:25;100439.00;;;19.74;87.81
29569;BME280;16501;51.462;14.346;2022-10-16T14:19:54;100449.66;;;19.68;87.90
29569;BME280;16501;51.462;14.346;2022-10-16T14:24:58;100431.63;;;19.60;88.62